sensor_id;sensor_type;location;lat;lon;timestamp;P1;durP1;ratioP1;P2;durP2;ratioP2
75535;SDS011;64119;52.070;20.804;2022-12-24T00:01:21;24.60;;;12.30;;
75535;SDS011;64119;52.070;20.804;2022-12-24T00:03:48;26.00;;;12.20;;
75535;SDS011;64119;52.070;20.804;2022-12-24T00:06:18;24.80;;;11.10;;
75535;SDS011;64119;52.070;20.804;2022-12-24T00:08:48;24.30;;;10.80;;
75535;SDS011;64119;52.070;20.804;2022-12-24T00:11:17;22.60;;;9.90;;
75535;SDS011;64119;52.070;20.804;2022-12-24T00:13:46;30.80;;;12.30;;
75535;SDS011;64119;52.070;20.804;2022-12-24T00:16:14;24.90;;;12.60;;
75535;SDS011;64119;52.070;20.804;2022-12-24T00:18:42;29.50;;;12.20;;
75535;SDS011;64119;52.070;20.804;2022-12-24T00:21:13;27.40;;;12.40;;
75535;SDS011;64119;52.070;20.804;2022-12-24T00:23:42;26.20;;;12.70;;
75535;SDS011;64119;52.070;20.804;2022-12-24T00:26:10;24.10;;;10.40;;
75535;SDS011;64119;52.070;20.804;2022-12-24T00:28:39;26.80;;;12.80;;
75535;SDS011;64119;52.070;20.804;2022-12-24T00:31:12;27.40;;;11.90;;
75535;SDS011;64119;52.070;20.804;2022-12-24T00:33:44;27.00;;;11.30;;
75535;SDS011;64119;52.070;20.804;2022-12-24T00:36:13;29.60;;;12.00;;
75535;SDS011;64119;52.070;20.804;2022-12-24T00:38:41;30.40;;;13.00;;
75535;SDS011;64119;52.070;20.804;2022-12-24T00:41:10;29.80;;;12.90;;
75535;SDS011;64119;52.070;20.804;2022-12-24T00:43:56;33.40;;;13.60;;
75535;SDS011;64119;52.070;20.804;2022-12-24T00:46:25;30.40;;;12.30;;
75535;SDS011;64119;52.070;20.804;2022-12-24T00:48:55;30.50;;;12.90;;
75535;SDS011;64119;52.070;20.804;2022-12-24T00:51:23;32.90;;;11.80;;
75535;SDS011;64119;52.070;20.804;2022-12-24T00:53:52;29.60;;;12.60;;
75535;SDS011;64119;52.070;20.804;2022-12-24T00:56:20;27.90;;;10.90;;
75535;SDS011;64119;52.070;20.804;2022-12-24T00:58:48;27.90;;;11.90;;
75535;SDS011;64119;52.070;20.804;2022-12-24T01:01:16;29.80;;;12.90;;
75535;SDS011;64119;52.070;20.804;2022-12-24T01:03:44;33.60;;;13.60;;
75535;SDS011;64119;52.070;20.804;2022-12-24T01:06:13;32.30;;;12.40;;
75535;SDS011;64119;52.070;20.804;2022-12-24T01:08:43;26.20;;;11.60;;
75535;SDS011;64119;52.070;20.804;2022-12-24T01:11:12;26.10;;;12.20;;
75535;SDS011;64119;52.070;20.804;2022-12-24T01:13:40;27.50;;;12.40;;
75535;SDS011;64119;52.070;20.804;2022-12-24T01:16:12;26.30;;;10.30;;
75535;SDS011;64119;52.070;20.804;2022-12-24T01:18:45;24.80;;;11.10;;
75535;SDS011;64119;52.070;20.804;2022-12-24T01:21:13;22.70;;;11.90;;
75535;SDS011;64119;52.070;20.804;2022-12-24T01:23:42;24.90;;;10.60;;
75535;SDS011;64119;52.070;20.804;2022-12-24T01:26:10;22.00;;;10.50;;
75535;SDS011;64119;52.070;20.804;2022-12-24T01:28:40;25.10;;;12.70;;
75535;SDS011;64119;52.070;20.804;2022-12-24T01:31:18;28.00;;;12.10;;
75535;SDS011;64119;52.070;20.804;2022-12-24T01:33:47;25.30;;;11.00;;
75535;SDS011;64119;52.070;20.804;2022-12-24T01:36:15;25.10;;;10.20;;
75535;SDS011;64119;52.070;20.804;2022-12-24T01:38:43;22.90;;;10.10;;
75535;SDS011;64119;52.070;20.804;2022-12-24T01:41:15;28.20;;;11.30;;
75535;SDS011;64119;52.070;20.804;2022-12-24T01:47:11;24.10;;;9.90;;
75535;SDS011;64119;52.070;20.804;2022-12-24T01:49:44;25.60;;;11.10;;
75535;SDS011;64119;52.070;20.804;2022-12-24T01:52:18;24.10;;;10.90;;
75535;SDS011;64119;52.070;20.804;2022-12-24T01:54:50;22.70;;;10.30;;
75535;SDS011;64119;52.070;20.804;2022-12-24T01:57:23;24.70;;;11.10;;
75535;SDS011;64119;52.070;20.804;2022-12-24T01:59:55;24.00;;;10.00;;
75535;SDS011;64119;52.070;20.804;2022-12-24T02:02:27;26.30;;;11.80;;
75535;SDS011;64119;52.070;20.804;2022-12-24T02:05:00;25.40;;;10.60;;
75535;SDS011;64119;52.070;20.804;2022-12-24T02:07:33;22.90;;;10.40;;
75535;SDS011;64119;52.070;20.804;2022-12-24T02:10:01;26.70;;;10.80;;
75535;SDS011;64119;52.070;20.804;2022-12-24T02:12:31;21.70;;;8.80;;
75535;SDS011;64119;52.070;20.804;2022-12-24T02:15:02;22.20;;;10.30;;
75535;SDS011;64119;52.070;20.804;2022-12-24T02:17:34;22.00;;;9.80;;
75535;SDS011;64119;52.070;20.804;2022-12-24T02:26:17;22.40;;;10.30;;
75535;SDS011;64119;52.070;20.804;2022-12-24T02:34:29;22.10;;;10.10;;
75535;SDS011;64119;52.070;20.804;2022-12-24T02:37:06;23.30;;;10.60;;
75535;SDS011;64119;52.070;20.804;2022-12-24T02:39:46;22.80;;;10.40;;
75535;SDS011;64119;52.070;20.804;2022-12-24T02:42:21;26.80;;;10.90;;
75535;SDS011;64119;52.070;20.804;2022-12-24T02:45:05;22.80;;;11.50;;
75535;SDS011;64119;52.070;20.804;2022-12-24T02:50:05;21.50;;;10.50;;
75535;SDS011;64119;52.070;20.804;2022-12-24T02:52:36;25.30;;;10.70;;
75535;SDS011;64119;52.070;20.804;2022-12-24T02:55:13;26.90;;;10.60;;
75535;SDS011;64119;52.070;20.804;2022-12-24T03:01:05;22.90;;;10.40;;
75535;SDS011;64119;52.070;20.804;2022-12-24T03:09:23;26.00;;;10.70;;
75535;SDS011;64119;52.070;20.804;2022-12-24T03:11:58;28.40;;;10.00;;
75535;SDS011;64119;52.070;20.804;2022-12-24T03:14:33;26.20;;;11.50;;
75535;SDS011;64119;52.070;20.804;2022-12-24T03:17:02;24.50;;;11.00;;
75535;SDS011;64119;52.070;20.804;2022-12-24T03:19:30;27.20;;;10.90;;
75535;SDS011;64119;52.070;20.804;2022-12-24T03:21:59;25.50;;;10.40;;
75535;SDS011;64119;52.070;20.804;2022-12-24T03:24:30;25.40;;;10.60;;
75535;SDS011;64119;52.070;20.804;2022-12-24T03:26:58;23.30;;;10.40;;
75535;SDS011;64119;52.070;20.804;2022-12-24T03:29:26;25.60;;;9.20;;
75535;SDS011;64119;52.070;20.804;2022-12-24T03:31:58;25.60;;;9.70;;
75535;SDS011;64119;52.070;20.804;2022-12-24T03:34:28;22.90;;;10.30;;
75535;SDS011;64119;52.070;20.804;2022-12-24T03:36:56;24.60;;;10.00;;
75535;SDS011;64119;52.070;20.804;2022-12-24T03:39:23;25.10;;;10.20;;
75535;SDS011;64119;52.070;20.804;2022-12-24T03:41:51;21.40;;;8.40;;
75535;SDS011;64119;52.070;20.804;2022-12-24T03:44:19;18.20;;;7.60;;
75535;SDS011;64119;52.070;20.804;2022-12-24T03:46:46;20.20;;;9.00;;
75535;SDS011;64119;52.070;20.804;2022-12-24T03:49:14;21.80;;;9.60;;
75535;SDS011;64119;52.070;20.804;2022-12-24T03:51:42;16.30;;;8.20;;
75535;SDS011;64119;52.070;20.804;2022-12-24T03:54:09;24.10;;;9.80;;
75535;SDS011;64119;52.070;20.804;2022-12-24T03:56:37;17.10;;;8.80;;
75535;SDS011;64119;52.070;20.804;2022-12-24T03:59:05;19.00;;;8.80;;
75535;SDS011;64119;52.070;20.804;2022-12-24T04:01:32;19.50;;;8.90;;
75535;SDS011;64119;52.070;20.804;2022-12-24T04:04:00;17.20;;;8.70;;
75535;SDS011;64119;52.070;20.804;2022-12-24T04:06:28;20.50;;;8.50;;
75535;SDS011;64119;52.070;20.804;2022-12-24T04:08:56;16.50;;;7.60;;
75535;SDS011;64119;52.070;20.804;2022-12-24T04:11:25;17.80;;;7.80;;
75535;SDS011;64119;52.070;20.804;2022-12-24T04:13:53;19.00;;;8.30;;
75535;SDS011;64119;52.070;20.804;2022-12-24T04:16:21;22.10;;;9.00;;
75535;SDS011;64119;52.070;20.804;2022-12-24T04:18:49;14.90;;;7.20;;
75535;SDS011;64119;52.070;20.804;2022-12-24T04:21:17;32.30;;;12.20;;
75535;SDS011;64119;52.070;20.804;2022-12-24T04:23:45;38.00;;;14.50;;
75535;SDS011;64119;52.070;20.804;2022-12-24T04:26:14;27.40;;;11.40;;
75535;SDS011;64119;52.070;20.804;2022-12-24T04:28:41;28.30;;;10.70;;
75535;SDS011;64119;52.070;20.804;2022-12-24T04:31:13;19.70;;;8.60;;
75535;SDS011;64119;52.070;20.804;2022-12-24T04:33:43;20.60;;;8.80;;
75535;SDS011;64119;52.070;20.804;2022-12-24T04:36:12;18.40;;;8.60;;
75535;SDS011;64119;52.070;20.804;2022-12-24T04:38:44;20.20;;;9.10;;
75535;SDS011;64119;52.070;20.804;2022-12-24T04:41:14;21.90;;;9.60;;
75535;SDS011;64119;52.070;20.804;2022-12-24T04:43:53;20.50;;;9.50;;
75535;SDS011;64119;52.070;20.804;2022-12-24T04:46:23;19.40;;;8.60;;
75535;SDS011;64119;52.070;20.804;2022-12-24T04:48:53;16.00;;;8.10;;
75535;SDS011;64119;52.070;20.804;2022-12-24T04:51:21;25.30;;;11.60;;
75535;SDS011;64119;52.070;20.804;2022-12-24T04:53:49;25.40;;;10.70;;
75535;SDS011;64119;52.070;20.804;2022-12-24T04:56:24;18.00;;;8.60;;
75535;SDS011;64119;52.070;20.804;2022-12-24T04:58:53;19.40;;;8.50;;
75535;SDS011;64119;52.070;20.804;2022-12-24T05:01:26;14.70;;;7.60;;
75535;SDS011;64119;52.070;20.804;2022-12-24T05:03:56;14.90;;;8.00;;
75535;SDS011;64119;52.070;20.804;2022-12-24T05:06:25;16.20;;;7.80;;
75535;SDS011;64119;52.070;20.804;2022-12-24T05:08:56;17.60;;;8.50;;
75535;SDS011;64119;52.070;20.804;2022-12-24T05:11:25;25.60;;;11.90;;
75535;SDS011;64119;52.070;20.804;2022-12-24T05:13:53;24.30;;;10.70;;
75535;SDS011;64119;52.070;20.804;2022-12-24T05:16:22;18.80;;;8.80;;
75535;SDS011;64119;52.070;20.804;2022-12-24T05:18:51;13.60;;;7.90;;
75535;SDS011;64119;52.070;20.804;2022-12-24T05:21:20;12.60;;;7.70;;
75535;SDS011;64119;52.070;20.804;2022-12-24T05:23:48;12.40;;;6.50;;
75535;SDS011;64119;52.070;20.804;2022-12-24T05:26:39;18.60;;;9.20;;
75535;SDS011;64119;52.070;20.804;2022-12-24T05:29:11;25.90;;;10.40;;
75535;SDS011;64119;52.070;20.804;2022-12-24T05:31:39;19.20;;;8.90;;
75535;SDS011;64119;52.070;20.804;2022-12-24T05:34:08;19.80;;;8.90;;
75535;SDS011;64119;52.070;20.804;2022-12-24T05:36:36;13.90;;;6.80;;
75535;SDS011;64119;52.070;20.804;2022-12-24T05:39:04;14.40;;;7.20;;
75535;SDS011;64119;52.070;20.804;2022-12-24T05:41:41;14.60;;;7.70;;
75535;SDS011;64119;52.070;20.804;2022-12-24T05:44:10;17.80;;;7.30;;
75535;SDS011;64119;52.070;20.804;2022-12-24T05:46:38;18.10;;;8.00;;
75535;SDS011;64119;52.070;20.804;2022-12-24T05:49:06;16.50;;;7.10;;
75535;SDS011;64119;52.070;20.804;2022-12-24T05:51:34;14.30;;;8.00;;
75535;SDS011;64119;52.070;20.804;2022-12-24T05:54:02;14.60;;;7.70;;
75535;SDS011;64119;52.070;20.804;2022-12-24T05:56:31;15.60;;;8.90;;
75535;SDS011;64119;52.070;20.804;2022-12-24T05:58:59;12.60;;;7.10;;
75535;SDS011;64119;52.070;20.804;2022-12-24T06:01:26;10.10;;;6.00;;
75535;SDS011;64119;52.070;20.804;2022-12-24T06:03:55;11.00;;;5.30;;
75535;SDS011;64119;52.070;20.804;2022-12-24T06:06:24;13.30;;;6.80;;
75535;SDS011;64119;52.070;20.804;2022-12-24T06:08:53;12.00;;;7.00;;
75535;SDS011;64119;52.070;20.804;2022-12-24T06:11:24;11.70;;;6.90;;
75535;SDS011;64119;52.070;20.804;2022-12-24T06:13:53;12.70;;;7.50;;
75535;SDS011;64119;52.070;20.804;2022-12-24T06:16:22;15.60;;;8.10;;
75535;SDS011;64119;52.070;20.804;2022-12-24T06:21:19;14.90;;;7.00;;
75535;SDS011;64119;52.070;20.804;2022-12-24T06:23:47;12.80;;;6.60;;
75535;SDS011;64119;52.070;20.804;2022-12-24T06:26:15;13.50;;;7.10;;
75535;SDS011;64119;52.070;20.804;2022-12-24T06:28:46;13.20;;;6.90;;
75535;SDS011;64119;52.070;20.804;2022-12-24T06:31:16;20.10;;;9.10;;
75535;SDS011;64119;52.070;20.804;2022-12-24T06:33:45;17.40;;;8.70;;
75535;SDS011;64119;52.070;20.804;2022-12-24T06:36:15;15.00;;;7.70;;
75535;SDS011;64119;52.070;20.804;2022-12-24T06:38:45;10.00;;;5.10;;
75535;SDS011;64119;52.070;20.804;2022-12-24T06:41:14;11.50;;;6.60;;
75535;SDS011;64119;52.070;20.804;2022-12-24T06:43:43;12.90;;;7.10;;
75535;SDS011;64119;52.070;20.804;2022-12-24T06:48:41;18.60;;;8.90;;
75535;SDS011;64119;52.070;20.804;2022-12-24T06:51:11;21.90;;;9.70;;
75535;SDS011;64119;52.070;20.804;2022-12-24T06:53:40;15.20;;;8.90;;
75535;SDS011;64119;52.070;20.804;2022-12-24T06:56:09;14.60;;;7.60;;
75535;SDS011;64119;52.070;20.804;2022-12-24T06:58:39;14.10;;;7.50;;
75535;SDS011;64119;52.070;20.804;2022-12-24T07:01:08;12.00;;;6.30;;
75535;SDS011;64119;52.070;20.804;2022-12-24T07:06:27;10.50;;;6.30;;
75535;SDS011;64119;52.070;20.804;2022-12-24T07:08:56;11.60;;;6.80;;
75535;SDS011;64119;52.070;20.804;2022-12-24T07:11:24;14.50;;;7.50;;
75535;SDS011;64119;52.070;20.804;2022-12-24T07:13:52;15.30;;;8.00;;
75535;SDS011;64119;52.070;20.804;2022-12-24T07:16:20;17.30;;;8.20;;
75535;SDS011;64119;52.070;20.804;2022-12-24T07:18:48;16.80;;;8.00;;
75535;SDS011;64119;52.070;20.804;2022-12-24T07:21:15;15.30;;;8.20;;
75535;SDS011;64119;52.070;20.804;2022-12-24T07:23:43;13.60;;;7.10;;
75535;SDS011;64119;52.070;20.804;2022-12-24T07:26:11;14.70;;;7.20;;
75535;SDS011;64119;52.070;20.804;2022-12-24T07:28:38;16.60;;;8.50;;
75535;SDS011;64119;52.070;20.804;2022-12-24T07:31:06;17.90;;;8.70;;
75535;SDS011;64119;52.070;20.804;2022-12-24T07:33:34;16.40;;;8.10;;
75535;SDS011;64119;52.070;20.804;2022-12-24T07:36:03;16.40;;;7.20;;
75535;SDS011;64119;52.070;20.804;2022-12-24T07:38:32;16.00;;;7.50;;
75535;SDS011;64119;52.070;20.804;2022-12-24T07:41:01;14.80;;;7.10;;
75535;SDS011;64119;52.070;20.804;2022-12-24T07:43:31;15.20;;;7.30;;
75535;SDS011;64119;52.070;20.804;2022-12-24T07:45:59;15.10;;;7.70;;
75535;SDS011;64119;52.070;20.804;2022-12-24T07:48:28;12.90;;;7.80;;
75535;SDS011;64119;52.070;20.804;2022-12-24T07:53:25;16.00;;;7.70;;
75535;SDS011;64119;52.070;20.804;2022-12-24T07:55:54;15.70;;;7.90;;
75535;SDS011;64119;52.070;20.804;2022-12-24T08:03:40;10.30;;;6.20;;
75535;SDS011;64119;52.070;20.804;2022-12-24T08:06:09;9.50;;;5.10;;
75535;SDS011;64119;52.070;20.804;2022-12-24T08:08:37;12.30;;;6.20;;
75535;SDS011;64119;52.070;20.804;2022-12-24T08:11:05;12.60;;;6.90;;
75535;SDS011;64119;52.070;20.804;2022-12-24T08:13:34;12.90;;;6.70;;
75535;SDS011;64119;52.070;20.804;2022-12-24T08:16:02;13.50;;;6.10;;
75535;SDS011;64119;52.070;20.804;2022-12-24T08:18:31;14.30;;;6.40;;
75535;SDS011;64119;52.070;20.804;2022-12-24T08:20:59;13.10;;;6.80;;
75535;SDS011;64119;52.070;20.804;2022-12-24T08:23:26;13.60;;;5.90;;
75535;SDS011;64119;52.070;20.804;2022-12-24T08:25:54;11.70;;;5.20;;
75535;SDS011;64119;52.070;20.804;2022-12-24T08:28:22;12.50;;;6.50;;
75535;SDS011;64119;52.070;20.804;2022-12-24T08:30:50;9.70;;;5.30;;
75535;SDS011;64119;52.070;20.804;2022-12-24T08:33:18;14.30;;;6.40;;
75535;SDS011;64119;52.070;20.804;2022-12-24T08:35:49;13.90;;;6.80;;
75535;SDS011;64119;52.070;20.804;2022-12-24T08:38:17;11.80;;;5.90;;
75535;SDS011;64119;52.070;20.804;2022-12-24T08:40:45;11.90;;;5.70;;
75535;SDS011;64119;52.070;20.804;2022-12-24T08:43:16;11.10;;;5.70;;
75535;SDS011;64119;52.070;20.804;2022-12-24T08:45:45;11.50;;;5.70;;
75535;SDS011;64119;52.070;20.804;2022-12-24T08:48:15;17.10;;;7.10;;
75535;SDS011;64119;52.070;20.804;2022-12-24T08:50:43;19.00;;;7.80;;
75535;SDS011;64119;52.070;20.804;2022-12-24T08:53:12;13.90;;;6.70;;
75535;SDS011;64119;52.070;20.804;2022-12-24T08:55:39;14.30;;;6.10;;
75535;SDS011;64119;52.070;20.804;2022-12-24T08:58:07;10.90;;;5.80;;
75535;SDS011;64119;52.070;20.804;2022-12-24T09:00:36;9.20;;;4.80;;
75535;SDS011;64119;52.070;20.804;2022-12-24T09:06:21;8.70;;;4.60;;
75535;SDS011;64119;52.070;20.804;2022-12-24T09:08:48;13.20;;;6.80;;
75535;SDS011;64119;52.070;20.804;2022-12-24T09:11:15;15.30;;;7.10;;
75535;SDS011;64119;52.070;20.804;2022-12-24T09:13:43;12.20;;;6.00;;
75535;SDS011;64119;52.070;20.804;2022-12-24T09:16:10;10.70;;;5.50;;
75535;SDS011;64119;52.070;20.804;2022-12-24T09:18:37;7.80;;;4.40;;
75535;SDS011;64119;52.070;20.804;2022-12-24T09:21:06;11.00;;;5.40;;
75535;SDS011;64119;52.070;20.804;2022-12-24T09:23:35;10.10;;;4.90;;
75535;SDS011;64119;52.070;20.804;2022-12-24T09:28:32;10.70;;;5.10;;
75535;SDS011;64119;52.070;20.804;2022-12-24T09:30:58;12.10;;;5.90;;
75535;SDS011;64119;52.070;20.804;2022-12-24T09:33:27;17.10;;;7.70;;
75535;SDS011;64119;52.070;20.804;2022-12-24T09:35:55;18.90;;;9.20;;
75535;SDS011;64119;52.070;20.804;2022-12-24T09:38:22;13.80;;;7.30;;
75535;SDS011;64119;52.070;20.804;2022-12-24T09:40:49;11.70;;;6.30;;
75535;SDS011;64119;52.070;20.804;2022-12-24T09:43:20;9.00;;;4.60;;
75535;SDS011;64119;52.070;20.804;2022-12-24T09:48:31;14.50;;;6.60;;
75535;SDS011;64119;52.070;20.804;2022-12-24T09:51:01;12.00;;;6.10;;
75535;SDS011;64119;52.070;20.804;2022-12-24T09:53:46;14.40;;;7.70;;
75535;SDS011;64119;52.070;20.804;2022-12-24T09:56:20;10.30;;;5.70;;
75535;SDS011;64119;52.070;20.804;2022-12-24T09:59:02;8.00;;;4.30;;
75535;SDS011;64119;52.070;20.804;2022-12-24T10:01:31;7.10;;;4.20;;
75535;SDS011;64119;52.070;20.804;2022-12-24T10:04:03;10.30;;;4.70;;
75535;SDS011;64119;52.070;20.804;2022-12-24T10:06:53;9.70;;;4.80;;
75535;SDS011;64119;52.070;20.804;2022-12-24T10:09:26;11.60;;;6.20;;
75535;SDS011;64119;52.070;20.804;2022-12-24T10:17:49;11.00;;;6.00;;
75535;SDS011;64119;52.070;20.804;2022-12-24T10:23:14;6.70;;;3.90;;
75535;SDS011;64119;52.070;20.804;2022-12-24T10:26:10;10.00;;;4.50;;
75535;SDS011;64119;52.070;20.804;2022-12-24T10:31:18;10.40;;;5.40;;
75535;SDS011;64119;52.070;20.804;2022-12-24T10:33:54;12.30;;;5.70;;
75535;SDS011;64119;52.070;20.804;2022-12-24T10:36:26;12.80;;;6.40;;
75535;SDS011;64119;52.070;20.804;2022-12-24T10:38:54;11.60;;;5.40;;
75535;SDS011;64119;52.070;20.804;2022-12-24T10:41:22;11.30;;;5.70;;
75535;SDS011;64119;52.070;20.804;2022-12-24T10:46:22;13.90;;;6.40;;
75535;SDS011;64119;52.070;20.804;2022-12-24T10:48:53;12.00;;;6.00;;
75535;SDS011;64119;52.070;20.804;2022-12-24T10:54:18;8.40;;;4.90;;
75535;SDS011;64119;52.070;20.804;2022-12-24T10:57:00;10.20;;;5.50;;
75535;SDS011;64119;52.070;20.804;2022-12-24T11:02:31;9.30;;;5.50;;
75535;SDS011;64119;52.070;20.804;2022-12-24T11:05:03;13.50;;;6.70;;
75535;SDS011;64119;52.070;20.804;2022-12-24T11:07:32;12.00;;;6.60;;
75535;SDS011;64119;52.070;20.804;2022-12-24T11:10:03;11.60;;;5.80;;
75535;SDS011;64119;52.070;20.804;2022-12-24T11:12:36;10.50;;;5.30;;
75535;SDS011;64119;52.070;20.804;2022-12-24T11:15:31;8.40;;;4.50;;
75535;SDS011;64119;52.070;20.804;2022-12-24T11:18:02;7.40;;;4.90;;
75535;SDS011;64119;52.070;20.804;2022-12-24T11:20:32;7.60;;;4.50;;
75535;SDS011;64119;52.070;20.804;2022-12-24T11:23:00;7.20;;;4.40;;
75535;SDS011;64119;52.070;20.804;2022-12-24T11:25:28;7.20;;;4.30;;
75535;SDS011;64119;52.070;20.804;2022-12-24T11:30:54;6.90;;;4.50;;
75535;SDS011;64119;52.070;20.804;2022-12-24T11:33:25;8.70;;;4.80;;
75535;SDS011;64119;52.070;20.804;2022-12-24T11:35:56;11.50;;;5.80;;
75535;SDS011;64119;52.070;20.804;2022-12-24T11:38:27;10.40;;;5.50;;
75535;SDS011;64119;52.070;20.804;2022-12-24T11:43:24;7.20;;;3.90;;
75535;SDS011;64119;52.070;20.804;2022-12-24T11:46:13;8.20;;;4.40;;
75535;SDS011;64119;52.070;20.804;2022-12-24T11:48:44;8.10;;;4.20;;
75535;SDS011;64119;52.070;20.804;2022-12-24T11:51:56;9.80;;;5.30;;
75535;SDS011;64119;52.070;20.804;2022-12-24T11:54:25;9.90;;;6.80;;
75535;SDS011;64119;52.070;20.804;2022-12-24T11:56:55;27.60;;;14.40;;
75535;SDS011;64119;52.070;20.804;2022-12-24T11:59:27;33.80;;;15.80;;
75535;SDS011;64119;52.070;20.804;2022-12-24T12:05:18;57.30;;;24.30;;
75535;SDS011;64119;52.070;20.804;2022-12-24T12:07:50;81.10;;;30.80;;
75535;SDS011;64119;52.070;20.804;2022-12-24T12:10:25;67.50;;;25.30;;
75535;SDS011;64119;52.070;20.804;2022-12-24T12:13:02;104.80;;;37.60;;
75535;SDS011;64119;52.070;20.804;2022-12-24T12:15:46;76.10;;;36.40;;
75535;SDS011;64119;52.070;20.804;2022-12-24T12:18:27;14.50;;;8.70;;
75535;SDS011;64119;52.070;20.804;2022-12-24T12:21:07;17.90;;;10.80;;
75535;SDS011;64119;52.070;20.804;2022-12-24T12:23:43;13.00;;;8.50;;
75535;SDS011;64119;52.070;20.804;2022-12-24T12:26:26;17.00;;;11.30;;
75535;SDS011;64119;52.070;20.804;2022-12-24T12:29:12;14.40;;;6.80;;
75535;SDS011;64119;52.070;20.804;2022-12-24T12:31:47;17.10;;;8.50;;
75535;SDS011;64119;52.070;20.804;2022-12-24T12:34:21;15.00;;;8.50;;
75535;SDS011;64119;52.070;20.804;2022-12-24T12:36:56;20.30;;;12.50;;
75535;SDS011;64119;52.070;20.804;2022-12-24T12:39:39;15.80;;;10.60;;
75535;SDS011;64119;52.070;20.804;2022-12-24T12:50:56;26.10;;;14.30;;
75535;SDS011;64119;52.070;20.804;2022-12-24T12:56:35;25.60;;;12.90;;
75535;SDS011;64119;52.070;20.804;2022-12-24T12:59:13;18.70;;;9.70;;
75535;SDS011;64119;52.070;20.804;2022-12-24T13:02:09;23.30;;;12.20;;
75535;SDS011;64119;52.070;20.804;2022-12-24T13:04:54;29.80;;;16.80;;
75535;SDS011;64119;52.070;20.804;2022-12-24T13:15:49;20.00;;;10.00;;
75535;SDS011;64119;52.070;20.804;2022-12-24T13:21:22;20.70;;;11.40;;
75535;SDS011;64119;52.070;20.804;2022-12-24T13:27:01;71.00;;;32.30;;
75535;SDS011;64119;52.070;20.804;2022-12-24T13:34:51;26.70;;;14.90;;
75535;SDS011;64119;52.070;20.804;2022-12-24T13:37:24;31.60;;;17.90;;
75535;SDS011;64119;52.070;20.804;2022-12-24T13:42:45;25.50;;;14.10;;
75535;SDS011;64119;52.070;20.804;2022-12-24T13:47:56;28.60;;;17.70;;
75535;SDS011;64119;52.070;20.804;2022-12-24T13:55:52;14.60;;;8.50;;
75535;SDS011;64119;52.070;20.804;2022-12-24T13:58:23;19.90;;;10.00;;
75535;SDS011;64119;52.070;20.804;2022-12-24T14:00:53;20.80;;;9.80;;
75535;SDS011;64119;52.070;20.804;2022-12-24T14:06:29;16.50;;;10.60;;
75535;SDS011;64119;52.070;20.804;2022-12-24T14:09:19;16.20;;;8.10;;
75535;SDS011;64119;52.070;20.804;2022-12-24T14:17:13;21.50;;;13.00;;
75535;SDS011;64119;52.070;20.804;2022-12-24T14:19:59;25.00;;;15.10;;
75535;SDS011;64119;52.070;20.804;2022-12-24T14:27:46;44.60;;;20.60;;
75535;SDS011;64119;52.070;20.804;2022-12-24T14:30:28;42.70;;;18.80;;
75535;SDS011;64119;52.070;20.804;2022-12-24T14:32:57;37.30;;;22.60;;
75535;SDS011;64119;52.070;20.804;2022-12-24T14:35:26;34.40;;;18.80;;
75535;SDS011;64119;52.070;20.804;2022-12-24T14:38:00;24.10;;;13.40;;
75535;SDS011;64119;52.070;20.804;2022-12-24T14:40:37;27.90;;;15.80;;
75535;SDS011;64119;52.070;20.804;2022-12-24T14:43:29;25.70;;;14.00;;
75535;SDS011;64119;52.070;20.804;2022-12-24T14:49:09;17.90;;;9.50;;
75535;SDS011;64119;52.070;20.804;2022-12-24T14:52:12;18.10;;;9.00;;
75535;SDS011;64119;52.070;20.804;2022-12-24T14:54:59;15.10;;;7.90;;
75535;SDS011;64119;52.070;20.804;2022-12-24T14:57:27;21.50;;;10.40;;
75535;SDS011;64119;52.070;20.804;2022-12-24T14:59:59;24.10;;;11.30;;
75535;SDS011;64119;52.070;20.804;2022-12-24T15:05:42;20.10;;;11.30;;
75535;SDS011;64119;52.070;20.804;2022-12-24T15:08:15;16.50;;;8.50;;
75535;SDS011;64119;52.070;20.804;2022-12-24T15:10:51;21.50;;;11.00;;
75535;SDS011;64119;52.070;20.804;2022-12-24T15:15:53;22.50;;;10.90;;
75535;SDS011;64119;52.070;20.804;2022-12-24T15:18:23;32.50;;;15.30;;
75535;SDS011;64119;52.070;20.804;2022-12-24T15:20:55;152.80;;;56.10;;
75535;SDS011;64119;52.070;20.804;2022-12-24T15:28:36;111.50;;;47.00;;
75535;SDS011;64119;52.070;20.804;2022-12-24T15:31:27;80.50;;;33.60;;
75535;SDS011;64119;52.070;20.804;2022-12-24T15:33:55;61.80;;;28.40;;
75535;SDS011;64119;52.070;20.804;2022-12-24T15:39:04;39.60;;;19.90;;
75535;SDS011;64119;52.070;20.804;2022-12-24T15:41:35;48.70;;;22.70;;
75535;SDS011;64119;52.070;20.804;2022-12-24T15:44:31;40.80;;;19.90;;
75535;SDS011;64119;52.070;20.804;2022-12-24T15:47:00;36.80;;;16.20;;
75535;SDS011;64119;52.070;20.804;2022-12-24T15:49:31;29.50;;;15.90;;
75535;SDS011;64119;52.070;20.804;2022-12-24T15:52:01;26.70;;;13.70;;
75535;SDS011;64119;52.070;20.804;2022-12-24T15:54:41;21.80;;;11.90;;
75535;SDS011;64119;52.070;20.804;2022-12-24T15:57:29;26.10;;;14.70;;
75535;SDS011;64119;52.070;20.804;2022-12-24T16:00:00;13.50;;;7.80;;
75535;SDS011;64119;52.070;20.804;2022-12-24T16:05:35;32.70;;;16.00;;
75535;SDS011;64119;52.070;20.804;2022-12-24T16:10:42;37.80;;;18.40;;
75535;SDS011;64119;52.070;20.804;2022-12-24T16:18:27;31.90;;;15.70;;
75535;SDS011;64119;52.070;20.804;2022-12-24T16:21:02;33.90;;;19.90;;
75535;SDS011;64119;52.070;20.804;2022-12-24T16:23:35;30.90;;;17.80;;
75535;SDS011;64119;52.070;20.804;2022-12-24T16:26:05;37.20;;;17.70;;
75535;SDS011;64119;52.070;20.804;2022-12-24T16:28:33;28.00;;;12.30;;
75535;SDS011;64119;52.070;20.804;2022-12-24T16:31:00;27.30;;;13.20;;
75535;SDS011;64119;52.070;20.804;2022-12-24T16:33:29;22.20;;;11.10;;
75535;SDS011;64119;52.070;20.804;2022-12-24T16:35:56;27.60;;;16.20;;
75535;SDS011;64119;52.070;20.804;2022-12-24T16:38:24;18.80;;;9.60;;
75535;SDS011;64119;52.070;20.804;2022-12-24T16:40:52;26.80;;;14.50;;
75535;SDS011;64119;52.070;20.804;2022-12-24T16:43:20;38.40;;;21.40;;
75535;SDS011;64119;52.070;20.804;2022-12-24T16:46:06;174.80;;;66.90;;
75535;SDS011;64119;52.070;20.804;2022-12-24T16:48:35;74.60;;;33.20;;
75535;SDS011;64119;52.070;20.804;2022-12-24T16:51:04;81.50;;;38.00;;
75535;SDS011;64119;52.070;20.804;2022-12-24T16:53:32;152.10;;;65.20;;
75535;SDS011;64119;52.070;20.804;2022-12-24T16:56:00;74.60;;;34.60;;
75535;SDS011;64119;52.070;20.804;2022-12-24T16:58:29;35.50;;;17.60;;
75535;SDS011;64119;52.070;20.804;2022-12-24T17:00:56;33.40;;;15.80;;
75535;SDS011;64119;52.070;20.804;2022-12-24T17:03:26;43.00;;;21.10;;
75535;SDS011;64119;52.070;20.804;2022-12-24T17:05:53;27.20;;;12.50;;
75535;SDS011;64119;52.070;20.804;2022-12-24T17:08:21;41.40;;;23.00;;
75535;SDS011;64119;52.070;20.804;2022-12-24T17:10:49;29.00;;;13.80;;
75535;SDS011;64119;52.070;20.804;2022-12-24T17:13:18;65.50;;;26.70;;
75535;SDS011;64119;52.070;20.804;2022-12-24T17:15:45;53.20;;;23.50;;
75535;SDS011;64119;52.070;20.804;2022-12-24T17:18:13;41.10;;;21.10;;
75535;SDS011;64119;52.070;20.804;2022-12-24T17:20:41;52.50;;;25.50;;
75535;SDS011;64119;52.070;20.804;2022-12-24T17:23:09;54.90;;;25.20;;